Time;durP1;ratioP1;P1;durP2;ratioP2;P2;SDS_P1;SDS_P2;PMS_P1;PMS_P2;Temp;Humidity;BMP_temperature;BMP_pressure;BME280_temperature;BME280_humidity;BME280_pressure;Samples;Min_cycle;Max_cycle;Signal;HPM_P1;HPM_P2
2022/11/03 00:01:13;;;;;;;0.60;0.60;;;8.30;99.90;;;;;;5093223;28;20470;-83
2022/11/03 00:03:40;;;;;;;0.40;0.30;;;8.30;99.90;;;;;;5093215;28;20444;-83
2022/11/03 00:06:07;;;;;;;0.30;0.30;;;8.30;99.90;;;;;;5093371;28;20480;-82
2022/11/03 00:08:40;;;;;;;0.50;0.50;;;8.20;99.90;;;;;;5092857;28;20940;-82
2022/11/03 00:11:09;;;;;;;1.50;0.40;;;8.20;99.90;;;;;;5093106;28;20441;-83
2022/11/03 00:13:37;;;;;;;0.60;0.40;;;8.20;99.90;;;;;;5093125;28;20445;-82
2022/11/03 00:16:05;;;;;;;1.40;0.47;;;8.20;99.90;;;;;;5092620;28;20813;-83
2022/11/03 00:18:32;;;;;;;1.07;0.60;;;8.20;99.90;;;;;;5093346;28;20428;-83
2022/11/03 00:21:00;;;;;;;2.30;1.00;;;8.20;99.90;;;;;;5093096;28;20815;-82
2022/11/03 00:23:29;;;;;;;0.93;0.60;;;8.20;99.90;;;;;;5093027;28;20445;-82
2022/11/03 00:26:04;;;;;;;0.70;0.50;;;8.20;99.90;;;;;;5092647;28;20533;-82
2022/11/03 00:28:32;;;;;;;3.83;0.77;;;8.20;99.90;;;;;;5093309;28;20428;-82
2022/11/03 00:31:00;;;;;;;5.00;0.60;;;8.20;99.90;;;;;;5092988;28;20461;-82
2022/11/03 00:33:27;;;;;;;1.63;0.77;;;8.20;99.90;;;;;;5092603;28;20452;-82
2022/11/03 00:35:57;;;;;;;0.70;0.70;;;8.20;99.90;;;;;;5095870;28;20778;-82
2022/11/03 00:38:25;;;;;;;0.80;0.70;;;8.20;99.90;;;;;;5096424;28;20440;-82
2022/11/03 00:40:54;;;;;;;0.50;0.50;;;8.20;99.90;;;;;;5096277;28;20947;-82
2022/11/03 00:43:22;;;;;;;0.90;0.70;;;8.20;99.90;;;;;;5096484;28;20464;-82
2022/11/03 00:45:49;;;;;;;0.63;0.50;;;8.20;99.90;;;;;;5096505;28;20476;-82
2022/11/03 00:48:32;;;;;;;0.70;0.50;;;8.10;99.90;;;;;;5096615;28;20440;-83
2022/11/03 00:51:08;;;;;;;0.43;0.40;;;8.10;99.90;;;;;;5096189;28;21013;-82
2022/11/03 00:53:36;;;;;;;0.50;0.47;;;8.10;99.90;;;;;;5096399;28;20454;-82
2022/11/03 00:56:04;;;;;;;1.30;0.63;;;8.00;99.90;;;;;;5096592;28;20452;-82
2022/11/03 00:58:32;;;;;;;0.60;0.50;;;8.00;99.90;;;;;;5096139;28;20805;-82
2022/11/03 01:01:04;;;;;;;0.80;0.60;;;8.00;99.90;;;;;;5097030;28;20440;-82
2022/11/03 01:03:33;;;;;;;0.80;0.80;;;7.90;99.90;;;;;;5096218;28;20805;-82
2022/11/03 01:08:44;;;;;;;0.30;0.30;;;7.90;99.90;;;;;;5096219;28;20776;-82
2022/11/03 01:14:00;;;;;;;0.60;0.60;;;7.90;99.90;;;;;;5096153;28;20450;-82
2022/11/03 01:16:28;;;;;;;1.97;0.47;;;7.90;99.90;;;;;;5095905;28;20487;-82
2022/11/03 01:18:55;;;;;;;0.63;0.63;;;7.90;99.90;;;;;;5096218;28;20453;-82
2022/11/03 01:21:22;;;;;;;0.40;0.37;;;7.90;99.90;;;;;;5095838;28;20476;-82
2022/11/03 01:23:49;;;;;;;0.43;0.40;;;7.80;99.90;;;;;;5095860;28;20448;-82
2022/11/03 01:26:17;;;;;;;0.60;0.50;;;7.80;99.90;;;;;;5095751;28;20480;-83
2022/11/03 01:28:45;;;;;;;1.57;0.57;;;7.80;99.90;;;;;;5095728;28;20456;-82
2022/11/03 01:31:17;;;;;;;0.50;0.50;;;7.80;99.90;;;;;;5095286;28;20943;-82
2022/11/03 01:33:45;;;;;;;0.40;0.40;;;7.70;99.90;;;;;;5095733;28;20436;-82
2022/11/03 01:36:13;;;;;;;0.70;0.70;;;7.70;99.90;;;;;;5095852;28;20441;-82
2022/11/03 01:38:40;;;;;;;0.30;0.30;;;7.70;99.90;;;;;;5095229;28;20948;-82
2022/11/03 01:41:10;;;;;;;16.80;0.60;;;7.70;99.90;;;;;;5095617;28;20455;-82
2022/11/03 01:43:38;;;;;;;0.60;0.60;;;7.70;99.90;;;;;;5095526;28;20444;-82
2022/11/03 01:46:13;;;;;;;0.40;0.30;;;7.70;99.90;;;;;;5094844;28;20492;-82
2022/11/03 01:48:46;;;;;;;0.43;0.37;;;7.60;99.90;;;;;;5095371;28;20428;-82
2022/11/03 01:51:19;;;;;;;0.50;0.50;;;7.60;99.90;;;;;;5094945;28;20787;-82
2022/11/03 01:53:48;;;;;;;1.10;0.40;;;7.60;99.90;;;;;;5095354;28;20804;-82
2022/11/03 01:56:17;;;;;;;0.60;0.60;;;7.50;99.90;;;;;;5095422;28;20447;-82
2022/11/03 01:58:48;;;;;;;0.50;0.50;;;7.50;99.90;;;;;;5095131;28;20450;-82
2022/11/03 02:01:15;;;;;;;0.50;0.50;;;7.50;99.90;;;;;;5095126;28;20461;-82
2022/11/03 02:03:48;;;;;;;9.17;1.00;;;7.50;99.90;;;;;;5094999;28;20451;-82
2022/11/03 02:06:16;;;;;;;2.83;0.70;;;7.40;99.90;;;;;;5094974;28;20474;-82
2022/11/03 02:08:48;;;;;;;0.57;0.57;;;7.40;99.90;;;;;;5094963;28;20520;-82
2022/11/03 02:13:56;;;;;;;0.37;0.30;;;7.40;99.90;;;;;;5071503;28;20429;-82
2022/11/03 02:16:24;;;;;;;0.40;0.40;;;7.40;99.90;;;;;;5094526;28;20468;-82
2022/11/03 02:18:53;;;;;;;0.50;0.50;;;7.40;99.90;;;;;;5094726;28;20449;-82
2022/11/03 02:21:27;;;;;;;3.33;1.03;;;7.40;99.90;;;;;;5094627;28;20441;-82
2022/11/03 02:24:01;;;;;;;0.87;0.50;;;7.40;99.90;;;;;;5094965;28;20429;-82
2022/11/03 02:26:30;;;;;;;0.37;0.37;;;7.40;99.90;;;;;;5094529;28;20468;-82
2022/11/03 02:28:56;;;;;;;0.30;0.30;;;7.40;99.90;;;;;;5094592;28;20452;-82
2022/11/03 02:31:32;;;;;;;1.07;0.30;;;7.40;99.90;;;;;;5094717;28;20465;-82
2022/11/03 02:34:06;;;;;;;0.70;0.60;;;7.40;99.90;;;;;;5094288;28;20429;-81
2022/11/03 02:36:38;;;;;;;2.23;0.70;;;7.40;99.90;;;;;;5094447;28;20424;-82
2022/11/03 02:39:09;;;;;;;3.07;0.60;;;7.50;99.90;;;;;;5094414;28;20441;-82
2022/11/03 02:41:39;;;;;;;0.80;0.50;;;7.50;99.90;;;;;;5094261;28;20992;-82
2022/11/03 02:44:08;;;;;;;0.73;0.73;;;7.40;99.90;;;;;;5094276;28;20445;-82
2022/11/03 02:46:35;;;;;;;2.43;0.83;;;7.40;99.90;;;;;;5093903;28;20480;-82
2022/11/03 02:49:02;;;;;;;1.93;0.70;;;7.40;99.90;;;;;;5094208;28;20445;-82
2022/11/03 02:51:29;;;;;;;1.20;1.10;;;7.30;99.90;;;;;;5094291;28;20464;-82
2022/11/03 02:54:13;;;;;;;0.93;0.90;;;7.30;99.90;;;;;;5094094;28;20444;-82
2022/11/03 02:56:49;;;;;;;0.40;0.40;;;7.30;99.90;;;;;;5094515;28;20421;-82
2022/11/03 02:59:20;;;;;;;0.30;0.30;;;7.30;99.90;;;;;;5093179;28;20440;-82
2022/11/03 03:01:51;;;;;;;0.40;0.40;;;7.30;99.90;;;;;;5093936;28;20460;-82
2022/11/03 03:04:22;;;;;;;0.70;0.60;;;7.30;99.90;;;;;;5093992;28;20433;-82
2022/11/03 03:06:54;;;;;;;0.40;0.40;;;7.20;99.90;;;;;;5094338;28;21013;-82
2022/11/03 03:09:25;;;;;;;0.40;0.30;;;7.20;99.90;;;;;;5093951;28;20437;-82
2022/11/03 03:11:58;;;;;;;0.50;0.40;;;7.20;99.90;;;;;;5093803;28;20475;-82
2022/11/03 03:14:28;;;;;;;0.40;0.40;;;7.20;99.90;;;;;;5093878;28;20439;-82
2022/11/03 03:16:59;;;;;;;0.77;0.77;;;7.20;99.90;;;;;;5093627;28;20476;-82
2022/11/03 03:19:41;;;;;;;0.40;0.40;;;7.20;99.90;;;;;;5094050;28;20443;-83
2022/11/03 03:22:16;;;;;;;0.47;0.47;;;7.20;99.90;;;;;;5093900;28;20476;-82
2022/11/03 03:24:50;;;;;;;5.40;1.17;;;7.20;99.90;;;;;;5094248;28;20443;-82
2022/11/03 03:27:23;;;;;;;0.40;0.40;;;7.20;99.90;;;;;;5093250;28;21002;-82
2022/11/03 03:29:56;;;;;;;0.30;0.30;;;7.20;99.90;;;;;;5093645;28;20433;-82
2022/11/03 03:32:26;;;;;;;0.50;0.50;;;7.20;99.90;;;;;;5093504;28;20468;-82
2022/11/03 03:34:54;;;;;;;0.50;0.50;;;7.10;99.90;;;;;;5094120;28;20433;-82
2022/11/03 03:37:24;;;;;;;0.40;0.40;;;7.10;99.90;;;;;;5093184;28;20449;-82
2022/11/03 03:39:55;;;;;;;0.70;0.30;;;7.10;99.90;;;;;;5093492;28;20440;-82
2022/11/03 03:42:27;;;;;;;0.97;0.60;;;7.10;99.90;;;;;;5093405;28;20841;-82
2022/11/03 03:44:55;;;;;;;1.07;0.60;;;7.20;99.90;;;;;;5093494;28;20437;-82
2022/11/03 03:47:25;;;;;;;17.17;0.80;;;7.10;99.90;;;;;;5093293;28;20487;-82
2022/11/03 03:49:52;;;;;;;2.63;0.40;;;7.10;99.90;;;;;;5093037;28;20825;-82
2022/11/03 03:52:19;;;;;;;0.50;0.50;;;7.20;99.90;;;;;;5093276;28;20472;-82
2022/11/03 03:54:46;;;;;;;0.30;0.30;;;7.20;99.90;;;;;;5098509;28;20445;-82
2022/11/03 03:57:15;;;;;;;0.40;0.30;;;7.20;99.90;;;;;;5093276;28;20452;-82
2022/11/03 03:59:44;;;;;;;1.03;0.43;;;7.20;99.90;;;;;;5092970;28;20452;-82
2022/11/03 04:02:11;;;;;;;1.13;0.90;;;7.20;99.90;;;;;;5093176;28;20472;-82
2022/11/03 04:04:38;;;;;;;0.53;0.53;;;7.20;99.90;;;;;;5093210;28;20485;-82
2022/11/03 04:09:50;;;;;;;3.47;0.60;;;7.20;99.90;;;;;;5094609;28;20478;-82
2022/11/03 04:23:17;;;;;;;0.87;0.50;;;7.10;99.90;;;;;;5097031;28;20466;-82
2022/11/03 04:25:47;;;;;;;0.50;0.50;;;7.10;99.90;;;;;;5096840;28;20961;-82
2022/11/03 04:28:15;;;;;;;1.17;0.80;;;7.20;99.90;;;;;;5096902;28;20923;-82
2022/11/03 04:30:44;;;;;;;2.60;0.80;;;7.20;99.90;;;;;;5096858;28;20537;-82
2022/11/03 04:33:14;;;;;;;0.70;0.53;;;7.10;99.90;;;;;;5096766;28;20487;-82
2022/11/03 04:35:43;;;;;;;0.60;0.43;;;7.10;99.90;;;;;;5096820;28;20435;-82
2022/11/03 04:38:21;;;;;;;0.50;0.40;;;7.10;99.90;;;;;;5096372;28;20936;-82
2022/11/03 04:40:53;;;;;;;0.40;0.40;;;7.00;99.90;;;;;;5096698;28;20432;-82
2022/11/03 04:43:22;;;;;;;4.23;1.30;;;7.00;99.90;;;;;;5096604;28;20533;-82
2022/11/03 04:45:50;;;;;;;1.07;0.60;;;7.00;99.90;;;;;;5096561;28;20445;-82
2022/11/03 04:48:21;;;;;;;0.90;0.60;;;7.00;99.90;;;;;;5096250;28;20449;-82
2022/11/03 04:50:49;;;;;;;1.57;1.20;;;7.00;99.90;;;;;;5096515;28;20938;-82
2022/11/03 04:53:18;;;;;;;0.50;0.40;;;7.00;99.90;;;;;;5096550;28;20471;-82
2022/11/03 04:55:46;;;;;;;2.83;1.10;;;7.00;99.90;;;;;;5096789;28;20440;-82
2022/11/03 04:58:18;;;;;;;0.70;0.40;;;7.00;99.90;;;;;;5096391;28;20443;-82
2022/11/03 05:00:45;;;;;;;1.50;0.60;;;7.10;99.90;;;;;;5096537;28;20437;-82
2022/11/03 05:03:16;;;;;;;0.30;0.30;;;7.10;99.90;;;;;;5096194;28;20606;-82
2022/11/03 05:05:43;;;;;;;1.50;0.83;;;7.00;99.90;;;;;;5096269;28;20433;-82
2022/11/03 05:08:11;;;;;;;1.60;1.17;;;7.00;99.90;;;;;;5096127;28;20844;-82
2022/11/03 05:10:38;;;;;;;0.50;0.40;;;7.00;99.90;;;;;;5096109;28;20448;-82
2022/11/03 05:13:16;;;;;;;0.60;0.50;;;7.00;99.90;;;;;;5096021;28;20466;-82
2022/11/03 05:15:45;;;;;;;0.40;0.30;;;6.90;99.90;;;;;;5095740;28;20911;-83
2022/11/03 05:18:19;;;;;;;0.50;0.40;;;6.90;99.90;;;;;;5095798;28;20477;-82
2022/11/03 05:20:51;;;;;;;0.60;0.40;;;6.80;99.90;;;;;;5095565;28;20511;-82
2022/11/03 05:23:20;;;;;;;0.70;0.37;;;6.80;99.90;;;;;;5095358;28;20852;-82
2022/11/03 05:25:49;;;;;;;0.50;0.50;;;6.80;99.90;;;;;;5095844;28;20444;-82
2022/11/03 05:28:25;;;;;;;1.03;0.53;;;6.70;99.90;;;;;;5095733;28;20484;-82
2022/11/03 05:30:53;;;;;;;0.83;0.80;;;6.60;99.90;;;;;;5096020;28;20440;-82
2022/11/03 05:33:27;;;;;;;1.10;0.40;;;6.60;99.90;;;;;;5095571;28;20471;-82
2022/11/03 05:35:54;;;;;;;2.27;0.77;;;6.70;99.90;;;;;;5095335;28;20475;-82
2022/11/03 05:38:22;;;;;;;0.60;0.60;;;6.60;99.90;;;;;;5095255;28;20445;-82
2022/11/03 05:40:52;;;;;;;0.40;0.40;;;6.70;99.90;;;;;;5095479;28;20468;-82
2022/11/03 05:43:19;;;;;;;0.40;0.40;;;6.60;99.90;;;;;;5095407;28;20492;-82
2022/11/03 05:45:47;;;;;;;0.50;0.50;;;6.60;99.90;;;;;;5095437;28;20440;-82
2022/11/03 05:48:18;;;;;;;0.80;0.30;;;6.60;99.90;;;;;;5095020;28;20533;-82
2022/11/03 05:50:46;;;;;;;0.50;0.50;;;6.70;99.90;;;;;;5095072;28;20439;-82
2022/11/03 05:53:30;;;;;;;1.43;0.80;;;6.70;99.90;;;;;;5095219;28;20469;-82
2022/11/03 05:56:00;;;;;;;0.43;0.43;;;6.70;99.90;;;;;;5095277;28;20432;-82
2022/11/03 05:58:32;;;;;;;0.40;0.40;;;6.70;99.90;;;;;;5095235;28;20498;-82
2022/11/03 06:01:00;;;;;;;1.53;0.63;;;6.70;99.90;;;;;;5094861;28;20436;-82
2022/11/03 06:03:29;;;;;;;3.70;1.13;;;6.70;99.90;;;;;;5095003;28;20464;-82
2022/11/03 06:06:00;;;;;;;0.40;0.40;;;6.60;99.90;;;;;;5094725;28;20815;-82
2022/11/03 06:08:30;;;;;;;0.80;0.50;;;6.60;99.90;;;;;;5094637;28;20537;-82
2022/11/03 06:11:00;;;;;;;3.30;0.90;;;6.70;99.90;;;;;;5095169;28;20447;-82
2022/11/03 06:13:30;;;;;;;0.60;0.60;;;6.70;99.90;;;;;;5094787;28;20484;-82
2022/11/03 06:16:01;;;;;;;0.43;0.43;;;6.70;99.90;;;;;;5095802;28;20424;-82
2022/11/03 06:18:32;;;;;;;3.80;0.53;;;6.70;99.90;;;;;;5094424;28;20429;-82
2022/11/03 06:21:06;;;;;;;0.40;0.40;;;6.70;99.90;;;;;;5094780;28;20428;-82
2022/11/03 06:23:33;;;;;;;3.90;0.73;;;6.70;99.90;;;;;;5094714;28;20479;-82
2022/11/03 06:26:02;;;;;;;1.17;0.50;;;6.70;99.90;;;;;;5094619;28;20445;-83
2022/11/03 06:28:33;;;;;;;0.53;0.50;;;6.80;99.90;;;;;;5094655;28;20484;-82
2022/11/03 06:31:00;;;;;;;1.53;0.97;;;6.80;99.90;;;;;;5094627;28;20522;-82
2022/11/03 06:33:29;;;;;;;0.40;0.30;;;6.80;99.90;;;;;;5093964;28;20465;-82
2022/11/03 06:36:02;;;;;;;0.80;0.50;;;6.80;99.90;;;;;;5094485;28;20539;-82
2022/11/03 06:38:31;;;;;;;0.50;0.50;;;6.80;99.90;;;;;;5094448;28;20939;-83
2022/11/03 06:40:58;;;;;;;0.63;0.63;;;6.90;99.90;;;;;;5094606;28;20441;-82
2022/11/03 06:43:31;;;;;;;0.90;0.50;;;6.90;99.90;;;;;;5094291;28;20824;-82
2022/11/03 06:46:00;;;;;;;0.77;0.40;;;7.00;99.90;;;;;;5094599;28;20433;-82
2022/11/03 06:48:28;;;;;;;0.40;0.40;;;7.10;99.90;;;;;;5093881;28;20487;-82
2022/11/03 06:50:58;;;;;;;0.33;0.33;;;7.20;99.90;;;;;;5094461;28;20449;-82
2022/11/03 06:53:29;;;;;;;0.50;0.50;;;7.20;99.90;;;;;;5094093;28;20468;-82
2022/11/03 06:55:56;;;;;;;0.40;0.30;;;7.20;99.90;;;;;;5094206;28;20518;-82
2022/11/03 06:58:28;;;;;;;0.33;0.30;;;7.30;99.90;;;;;;5094163;28;20467;-82
2022/11/03 07:00:56;;;;;;;1.73;0.70;;;7.40;99.90;;;;;;5094127;28;20930;-83
2022/11/03 07:03:26;;;;;;;0.40;0.33;;;7.50;99.90;;;;;;5093836;28;20464;-83
2022/11/03 07:05:57;;;;;;;1.07;0.40;;;7.60;99.90;;;;;;5093730;28;20907;-82
2022/11/03 07:08:27;;;;;;;0.87;0.40;;;7.70;99.90;;;;;;5093859;28;20468;-82
2022/11/03 07:11:01;;;;;;;0.63;0.40;;;7.80;99.90;;;;;;5093973;28;20439;-82
2022/11/03 07:13:30;;;;;;;5.70;0.60;;;7.90;99.90;;;;;;5093925;28;20425;-82
2022/11/03 07:15:56;;;;;;;0.63;0.50;;;8.00;99.90;;;;;;5093757;28;20448;-83
2022/11/03 07:18:26;;;;;;;0.40;0.30;;;8.10;99.90;;;;;;5093916;28;20425;-83
2022/11/03 07:20:55;;;;;;;0.30;0.30;;;8.10;99.90;;;;;;5093817;28;20917;-83
2022/11/03 07:23:25;;;;;;;0.50;0.43;;;8.20;99.90;;;;;;5093662;28;20468;-82
2022/11/03 07:25:56;;;;;;;0.40;0.30;;;8.20;99.90;;;;;;5093779;28;20451;-83
2022/11/03 07:28:26;;;;;;;2.53;0.40;;;8.30;99.90;;;;;;5093413;28;20465;-83
2022/11/03 07:30:53;;;;;;;0.43;0.43;;;8.30;99.90;;;;;;5097296;28;20415;-82
2022/11/03 07:33:22;;;;;;;0.40;0.30;;;8.30;99.90;;;;;;5095234;28;20468;-82
2022/11/03 07:35:50;;;;;;;1.43;1.33;;;8.30;99.90;;;;;;5093641;28;20441;-83
2022/11/03 07:38:20;;;;;;;0.40;0.40;;;8.40;99.90;;;;;;5093556;28;20463;-82
2022/11/03 07:40:47;;;;;;;1.20;0.57;;;8.40;99.90;;;;;;5093496;28;20446;-83
2022/11/03 07:43:18;;;;;;;0.40;0.33;;;8.50;99.90;;;;;;5093166;28;20827;-83
2022/11/03 07:45:49;;;;;;;1.07;0.60;;;8.50;99.90;;;;;;5093190;28;20433;-82
2022/11/03 07:48:21;;;;;;;2.83;1.10;;;8.60;99.90;;;;;;5093570;28;20468;-83
2022/11/03 07:50:49;;;;;;;0.40;0.40;;;8.70;99.90;;;;;;5093569;28;20451;-83
2022/11/03 07:53:21;;;;;;;1.00;0.60;;;8.70;99.90;;;;;;5093121;28;20468;-81
2022/11/03 07:55:48;;;;;;;0.60;0.60;;;8.80;99.90;;;;;;5093467;28;20498;-83
2022/11/03 07:58:22;;;;;;;1.20;0.70;;;8.90;99.90;;;;;;5093397;28;20448;-82
2022/11/03 08:00:50;;;;;;;0.63;0.63;;;8.90;99.90;;;;;;5093540;28;20432;-82
2022/11/03 08:03:28;;;;;;;0.50;0.50;;;9.00;99.90;;;;;;5093434;28;20469;-83
2022/11/03 08:05:55;;;;;;;0.43;0.33;;;9.10;99.90;;;;;;5093348;28;20434;-83
2022/11/03 08:08:21;;;;;;;0.40;0.40;;;9.30;99.90;;;;;;5093180;28;20495;-84
2022/11/03 08:10:48;;;;;;;0.50;0.40;;;9.40;99.90;;;;;;5093478;28;20535;-84
2022/11/03 08:13:15;;;;;;;1.10;0.50;;;9.50;99.90;;;;;;5093054;28;20814;-82
2022/11/03 08:15:43;;;;;;;1.83;1.00;;;9.60;99.90;;;;;;5093235;28;20440;-82
2022/11/03 08:18:10;;;;;;;0.40;0.33;;;9.70;99.90;;;;;;5092879;28;20480;-82
2022/11/03 08:20:37;;;;;;;0.57;0.40;;;9.70;99.90;;;;;;5093116;28;20444;-82
2022/11/03 08:23:03;;;;;;;1.20;1.10;;;9.80;99.90;;;;;;5093031;28;20469;-82
2022/11/03 08:25:30;;;;;;;1.00;0.70;;;9.80;99.90;;;;;;5093050;28;20444;-82
2022/11/03 08:27:57;;;;;;;0.83;0.60;;;9.80;99.90;;;;;;5093627;28;20476;-82
2022/11/03 08:30:24;;;;;;;1.13;0.60;;;9.90;99.90;;;;;;5093044;28;20448;-82
2022/11/03 08:32:52;;;;;;;2.13;0.90;;;10.00;99.90;;;;;;5093163;28;20465;-82
2022/11/03 08:35:19;;;;;;;0.83;0.70;;;10.00;99.90;;;;;;5092738;28;20963;-82
2022/11/03 08:37:45;;;;;;;2.87;0.77;;;10.10;99.90;;;;;;5092958;28;20834;-82
2022/11/03 08:40:13;;;;;;;1.07;0.40;;;10.20;99.90;;;;;;5092631;28;20824;-82
2022/11/03 08:42:39;;;;;;;0.40;0.40;;;10.20;99.90;;;;;;5092537;28;20469;-82
2022/11/03 08:45:07;;;;;;;1.47;0.60;;;10.20;99.90;;;;;;5092913;28;20449;-82
2022/11/03 08:47:34;;;;;;;1.03;1.00;;;10.40;99.90;;;;;;5092855;28;20484;-82
2022/11/03 08:50:02;;;;;;;0.40;0.37;;;10.50;99.90;;;;;;5092572;28;20969;-83
2022/11/03 08:52:29;;;;;;;1.17;0.70;;;10.60;99.90;;;;;;5092452;28;20464;-82
2022/11/03 08:54:56;;;;;;;0.40;0.40;;;10.80;99.90;;;;;;5092770;28;20445;-82
2022/11/03 08:57:22;;;;;;;0.70;0.50;;;11.00;99.90;;;;;;5094881;28;20523;-82
2022/11/03 08:59:51;;;;;;;0.60;0.50;;;11.20;99.90;;;;;;5096415;28;20440;-83
2022/11/03 09:02:18;;;;;;;1.07;1.07;;;11.40;99.90;;;;;;5096555;28;20563;-83
2022/11/03 09:04:44;;;;;;;0.40;0.40;;;11.60;99.90;;;;;;5096348;28;20896;-83
2022/11/03 09:07:13;;;;;;;1.07;0.97;;;12.10;99.90;;;;;;5096371;28;20452;-83
2022/11/03 09:09:39;;;;;;;0.50;0.50;;;12.30;99.90;;;;;;5096332;28;20451;-82
2022/11/03 09:12:06;;;;;;;1.17;0.93;;;12.60;99.90;;;;;;5096110;28;20468;-82
2022/11/03 09:14:33;;;;;;;0.70;0.60;;;12.80;99.90;;;;;;5096168;28;20452;-82
2022/11/03 09:17:00;;;;;;;0.97;0.40;;;13.20;99.90;;;;;;5095729;28;20473;-83
2022/11/03 09:19:27;;;;;;;0.40;0.40;;;13.50;99.90;;;;;;5095691;28;20444;-83
2022/11/03 09:21:53;;;;;;;0.73;0.60;;;13.70;99.90;;;;;;5098816;28;20464;-88
2022/11/03 09:24:21;;;;;;;0.60;0.60;;;14.00;99.90;;;;;;5097487;28;20459;-82
2022/11/03 09:26:50;;;;;;;0.67;0.57;;;13.90;99.90;;;;;;5097277;28;20527;-86
2022/11/03 09:29:17;;;;;;;0.90;0.50;;;13.80;99.90;;;;;;5098569;28;20923;-87
2022/11/03 09:31:44;;;;;;;0.60;0.60;;;13.40;99.90;;;;;;5097151;28;20472;-86
2022/11/03 09:34:11;;;;;;;0.97;0.87;;;13.00;99.90;;;;;;5095834;28;20448;-82
2022/11/03 09:36:38;;;;;;;0.60;0.60;;;12.90;99.90;;;;;;5095773;28;20455;-85
2022/11/03 09:39:05;;;;;;;0.97;0.63;;;12.50;99.90;;;;;;5095959;28;20437;-83
2022/11/03 09:41:34;;;;;;;1.70;0.60;;;12.40;99.90;;;;;;5095856;28;20460;-86
2022/11/03 09:44:01;;;;;;;0.97;0.60;;;12.20;99.90;;;;;;5096102;28;20436;-85
2022/11/03 09:46:30;;;;;;;0.70;0.70;;;12.10;99.90;;;;;;5095905;28;20449;-85
2022/11/03 09:48:57;;;;;;;1.97;0.77;;;12.00;99.90;;;;;;5095586;28;20473;-85
2022/11/03 09:51:26;;;;;;;15.53;0.97;;;12.00;99.90;;;;;;5095834;28;20473;-85
2022/11/03 09:53:53;;;;;;;1.13;1.13;;;12.00;99.90;;;;;;5095636;28;20444;-85
2022/11/03 09:56:22;;;;;;;0.50;0.50;;;11.90;99.90;;;;;;5095297;28;20966;-85
2022/11/03 09:58:50;;;;;;;0.73;0.70;;;11.90;99.90;;;;;;5095441;28;20455;-85
2022/11/03 10:01:18;;;;;;;0.60;0.50;;;12.00;99.90;;;;;;5095364;28;20459;-85
2022/11/03 10:03:48;;;;;;;1.50;0.93;;;12.00;99.90;;;;;;5095215;28;20459;-85
2022/11/03 10:06:20;;;;;;;0.77;0.77;;;12.00;99.90;;;;;;5095776;28;20455;-84
2022/11/03 10:08:52;;;;;;;0.90;0.70;;;12.00;99.90;;;;;;5094767;28;20480;-86
2022/11/03 10:11:19;;;;;;;1.23;0.80;;;11.90;99.90;;;;;;5095314;28;20432;-85
2022/11/03 10:13:53;;;;;;;2.13;1.00;;;11.80;99.90;;;;;;5094919;28;20451;-86
2022/11/03 10:16:26;;;;;;;1.13;0.83;;;11.80;99.90;;;;;;5095058;28;20484;-85
2022/11/03 10:18:53;;;;;;;2.27;0.80;;;11.70;99.90;;;;;;5095273;28;20441;-85
2022/11/03 10:21:25;;;;;;;1.80;0.90;;;11.70;99.90;;;;;;5096261;28;20452;-85
2022/11/03 10:23:52;;;;;;;0.83;0.83;;;11.60;99.90;;;;;;5095156;28;20942;-85
2022/11/03 10:26:20;;;;;;;0.60;0.60;;;11.60;99.90;;;;;;5095802;28;20811;-85
2022/11/03 10:29:00;;;;;;;1.83;0.70;;;11.70;99.90;;;;;;5095136;28;20994;-84
2022/11/03 10:31:33;;;;;;;0.93;0.63;;;11.70;99.90;;;;;;5095676;28;20464;-85
2022/11/03 10:34:00;;;;;;;1.67;0.73;;;11.70;99.90;;;;;;5094957;28;20899;-85
2022/11/03 10:36:28;;;;;;;2.27;0.77;;;11.60;99.90;;;;;;5095206;28;20456;-85
2022/11/03 10:38:56;;;;;;;0.90;0.33;;;11.70;99.90;;;;;;5095556;28;20440;-85
2022/11/03 10:41:24;;;;;;;0.87;0.70;;;11.70;99.90;;;;;;5112861;28;20441;-85
2022/11/03 10:44:04;;;;;;;1.10;0.50;;;11.80;99.90;;;;;;5114933;28;20448;-85
2022/11/03 10:46:32;;;;;;;1.60;1.23;;;12.00;99.90;;;;;;5114575;28;20424;-84
2022/11/03 10:49:04;;;;;;;4.23;1.20;;;12.10;99.90;;;;;;5106458;28;20568;-85
2022/11/03 10:51:32;;;;;;;0.97;0.97;;;12.20;99.90;;;;;;5094685;28;20467;-85
2022/11/03 10:53:58;;;;;;;2.20;0.87;;;12.40;99.90;;;;;;5094557;28;20445;-85
2022/11/03 10:56:26;;;;;;;0.83;0.60;;;12.40;99.90;;;;;;5094661;28;20444;-85
2022/11/03 10:58:53;;;;;;;4.93;0.90;;;12.50;99.90;;;;;;5094398;28;20514;-83
2022/11/03 11:01:21;;;;;;;0.93;0.70;;;12.60;99.90;;;;;;5094340;28;20535;-85
2022/11/03 11:03:48;;;;;;;1.33;0.70;;;12.60;99.90;;;;;;5094303;28;20452;-85
2022/11/03 11:06:24;;;;;;;3.20;2.10;;;12.70;99.90;;;;;;5094453;28;20456;-83
2022/11/03 11:08:56;;;;;;;0.80;0.60;;;12.70;99.90;;;;;;5095342;28;20468;-87
2022/11/03 11:11:23;;;;;;;1.23;0.80;;;12.70;99.90;;;;;;5095574;28;20440;-85
2022/11/03 11:14:35;;;;;;;2.10;1.13;;;12.70;99.90;;;;;;5094355;28;20445;-87
2022/11/03 11:17:05;;;;;;;1.60;0.60;;;12.70;99.90;;;;;;5097893;28;20460;-88
2022/11/03 11:20:10;;;;;;;0.50;0.50;;;12.80;99.90;;;;;;5093767;28;20440;-86
2022/11/03 11:22:38;;;;;;;1.03;0.50;;;12.90;99.90;;;;;;5095029;28;20467;-90
2022/11/03 11:25:05;;;;;;;0.63;0.57;;;13.10;99.90;;;;;;5095614;28;20873;-90
2022/11/03 11:27:59;;;;;;;0.97;0.87;;;13.10;99.90;;;;;;5095316;28;20433;-90
2022/11/03 11:31:03;;;;;;;0.70;0.50;;;13.20;99.90;;;;;;5095622;28;20440;-90
2022/11/03 11:33:33;;;;;;;0.40;0.40;;;13.20;99.90;;;;;;5096041;28;20433;-90
2022/11/03 11:36:26;;;;;;;0.60;0.50;;;13.30;99.90;;;;;;5095370;28;20448;-91
2022/11/03 11:38:58;;;;;;;1.00;0.60;;;13.30;99.90;;;;;;5095162;28;20420;-90
2022/11/03 11:42:02;;;;;;;0.80;0.80;;;13.30;99.90;;;;;;5094696;28;20461;-90
2022/11/03 11:44:53;;;;;;;0.80;0.50;;;13.40;99.90;;;;;;5103453;28;20454;-90
2022/11/03 11:47:26;;;;;;;1.40;0.80;;;13.40;99.90;;;;;;5096482;28;20436;-90
2022/11/03 11:50:30;;;;;;;1.17;1.00;;;13.50;99.90;;;;;;5096263;28;20487;-90
2022/11/03 11:52:59;;;;;;;1.93;0.70;;;13.60;99.90;;;;;;5082706;28;20476;-89
2022/11/03 11:55:37;;;;;;;0.50;0.50;;;13.60;99.90;;;;;;5094842;28;20452;-89
2022/11/03 11:58:06;;;;;;;1.73;0.70;;;13.50;99.90;;;;;;5095184;28;20421;-89
2022/11/03 12:00:34;;;;;;;0.40;0.37;;;13.60;99.90;;;;;;5094986;28;20453;-90
2022/11/03 12:03:04;;;;;;;0.60;0.60;;;13.60;99.90;;;;;;5095005;28;20468;-90
2022/11/03 12:05:34;;;;;;;0.90;0.53;;;13.60;99.90;;;;;;5095082;28;20440;-90
2022/11/03 12:08:01;;;;;;;0.50;0.50;;;13.70;99.90;;;;;;5094831;28;20428;-89
2022/11/03 12:10:31;;;;;;;1.23;0.70;;;13.70;99.90;;;;;;5099404;28;20940;-89
2022/11/03 12:12:59;;;;;;;0.83;0.70;;;13.70;99.90;;;;;;5098591;28;20606;-87
2022/11/03 12:15:48;;;;;;;0.50;0.40;;;13.70;99.90;;;;;;5096793;28;20479;-87
2022/11/03 12:18:36;;;;;;;0.93;0.60;;;13.60;99.90;;;;;;5095453;28;20854;-85
2022/11/03 12:21:04;;;;;;;1.00;0.63;;;13.60;99.90;;;;;;5096910;28;20835;-87
2022/11/03 12:23:36;;;;;;;0.40;0.40;;;13.70;99.90;;;;;;5096165;28;20432;-87
2022/11/03 12:26:05;;;;;;;1.27;0.60;;;13.70;99.90;;;;;;5096833;28;20892;-88
2022/11/03 12:28:33;;;;;;;0.90;0.60;;;13.60;99.90;;;;;;5095895;28;20475;-88
2022/11/03 12:31:00;;;;;;;1.00;0.60;;;13.50;99.90;;;;;;5098997;28;20428;-87
2022/11/03 12:33:28;;;;;;;0.60;0.60;;;13.50;99.90;;;;;;5100845;28;20533;-88
2022/11/03 12:35:55;;;;;;;0.60;0.50;;;13.60;99.90;;;;;;5101667;28;20518;-88
2022/11/03 12:38:22;;;;;;;0.73;0.50;;;13.50;99.90;;;;;;5101140;28;20450;-88
2022/11/03 12:40:49;;;;;;;0.70;0.50;;;13.60;99.90;;;;;;5101697;28;20453;-87
2022/11/03 12:43:17;;;;;;;0.90;0.80;;;13.60;99.90;;;;;;5100136;28;20496;-87
2022/11/03 12:45:44;;;;;;;0.40;0.40;;;13.70;99.90;;;;;;5100655;28;20457;-86
2022/11/03 12:48:11;;;;;;;0.50;0.50;;;13.70;99.90;;;;;;5098728;28;20957;-87
2022/11/03 12:50:38;;;;;;;1.67;0.40;;;13.60;99.90;;;;;;5100259;28;20440;-86
2022/11/03 12:53:06;;;;;;;1.13;0.50;;;13.60;99.90;;;;;;5100517;28;20472;-87
2022/11/03 12:55:33;;;;;;;0.40;0.40;;;13.60;99.90;;;;;;5102097;28;20447;-87
2022/11/03 12:58:01;;;;;;;0.50;0.50;;;13.70;99.90;;;;;;5102135;28;20478;-88
2022/11/03 13:00:30;;;;;;;1.83;0.90;;;13.60;99.90;;;;;;5101634;28;20453;-87
2022/11/03 13:02:57;;;;;;;2.50;0.70;;;13.60;99.90;;;;;;5101081;28;20556;-88
2022/11/03 13:05:24;;;;;;;0.70;0.60;;;13.60;99.90;;;;;;5101756;28;20451;-87
2022/11/03 13:07:51;;;;;;;0.40;0.40;;;13.70;99.90;;;;;;5098413;28;20457;-83
2022/11/03 13:10:18;;;;;;;0.80;0.70;;;13.70;99.90;;;;;;5096478;28;20488;-82
2022/11/03 13:12:45;;;;;;;2.40;0.80;;;13.80;99.90;;;;;;5096310;28;20474;-83
2022/11/03 13:15:14;;;;;;;2.47;0.60;;;13.70;99.90;;;;;;5096071;28;20497;-83
2022/11/03 13:17:43;;;;;;;0.50;0.50;;;13.60;99.90;;;;;;5095845;28;20987;-82
2022/11/03 13:20:13;;;;;;;3.13;0.90;;;13.60;99.90;;;;;;5096095;28;20440;-82
2022/11/03 13:22:40;;;;;;;1.00;0.93;;;13.60;99.90;;;;;;5096038;28;20475;-82
2022/11/03 13:25:08;;;;;;;0.60;0.57;;;13.60;99.90;;;;;;5095861;28;20960;-82
2022/11/03 13:27:34;;;;;;;0.83;0.53;;;13.60;99.90;;;;;;5096045;28;20436;-83
2022/11/03 13:30:01;;;;;;;0.70;0.70;;;13.60;99.90;;;;;;5095779;28;20964;-83